Time;durP1;ratioP1;P1;durP2;ratioP2;P2;SDS_P1;SDS_P2;PMS_P1;PMS_P2;Temp;Humidity;BMP_temperature;BMP_pressure;BME280_temperature;BME280_humidity;BME280_pressure;Samples;Min_cycle;Max_cycle;Signal;HPM_P1;HPM_P2
2022/10/31 00:00:50;;;;;;;2.33;2.20;;;;;;;15.86;67.65;100524.69;4380973;32;32888;-88
2022/10/31 00:03:20;;;;;;;4.15;3.75;;;;;;;15.51;69.11;100523.84;4380845;32;32824;-89
2022/10/31 00:05:49;;;;;;;1.60;1.50;;;;;;;15.46;69.12;100531.22;4382377;32;33175;-89
2022/10/31 00:08:18;;;;;;;2.92;2.72;;;;;;;15.51;68.87;100529.19;4391437;32;32635;-90
2022/10/31 00:10:47;;;;;;;2.67;2.00;;;;;;;15.78;67.85;100528.69;4381688;32;33652;-90
2022/10/31 00:13:16;;;;;;;4.43;3.17;;;;;;;15.84;67.38;100536.34;4385904;32;33382;-89
2022/10/31 00:15:45;;;;;;;3.03;2.62;;;;;;;15.68;67.68;100536.31;4369998;32;32088;-89
2022/10/31 00:18:35;;;;;;;8.82;4.15;;;;;;;15.60;67.94;100533.16;4384400;32;33170;-89
2022/10/31 00:21:03;;;;;;;4.25;2.85;;;;;;;15.47;68.73;100538.25;4381801;32;32581;-90
2022/10/31 00:23:51;;;;;;;3.47;3.17;;;;;;;15.53;68.59;100535.31;4370907;32;32948;-89
2022/10/31 00:26:26;;;;;;;7.03;3.08;;;;;;;15.42;69.08;100518.16;4380893;32;31982;-89
2022/10/31 00:29:06;;;;;;;1.58;0.95;;;;;;;15.54;68.79;100529.03;4387981;32;33980;-89
2022/10/31 00:31:36;;;;;;;2.15;2.05;;;;;;;15.46;69.09;100528.56;4360695;32;33499;-89
2022/10/31 00:34:05;;;;;;;3.75;3.40;;;;;;;15.18;69.82;100525.63;4393003;32;33689;-88
2022/10/31 00:36:33;;;;;;;1.37;1.20;;;;;;;14.91;70.76;100514.56;4373731;32;33185;-89
2022/10/31 00:39:05;;;;;;;1.23;1.23;;;;;;;14.87;70.75;100513.88;4378930;32;33553;-88
2022/10/31 00:41:35;;;;;;;3.53;2.37;;;;;;;15.43;68.61;100510.12;4391392;32;33944;-88
2022/10/31 00:44:07;;;;;;;2.00;1.87;;;;;;;15.29;68.72;100508.16;4380487;32;32755;-88
2022/10/31 00:46:37;;;;;;;1.58;1.48;;;;;;;15.57;67.99;100507.59;4386990;32;32696;-90
2022/10/31 00:49:22;;;;;;;1.85;1.75;;;;;;;15.45;68.33;100505.56;4368543;32;33222;-91
2022/10/31 00:52:14;;;;;;;2.62;2.15;;;;;;;15.46;68.73;100499.28;4373944;32;33623;-90
2022/10/31 00:54:56;;;;;;;0.73;0.73;;;;;;;15.26;69.65;100499.47;4379871;32;32831;-90
2022/10/31 00:57:39;;;;;;;2.75;2.17;;;;;;;15.42;69.18;100503.03;4382257;32;32190;-86
2022/10/31 01:00:08;;;;;;;3.90;1.77;;;;;;;15.51;68.45;100502.56;4407630;32;34583;-86
2022/10/31 01:02:37;;;;;;;1.08;0.98;;;;;;;15.23;69.68;100504.94;4368819;32;33043;-86
2022/10/31 01:05:06;;;;;;;2.28;2.17;;;;;;;15.34;69.50;100505.28;4389285;32;33059;-86
2022/10/31 01:07:39;;;;;;;1.23;1.12;;;;;;;15.34;69.73;100507.94;4379787;32;34023;-86
2022/10/31 01:10:10;;;;;;;3.78;2.58;;;;;;;15.40;69.42;100504.94;4381860;32;35296;-86
2022/10/31 01:12:40;;;;;;;1.90;1.45;;;;;;;15.47;69.11;100501.00;4387615;32;32697;-86
2022/10/31 01:15:09;;;;;;;3.20;2.45;;;;;;;15.45;69.17;100508.22;4381028;32;33418;-86
2022/10/31 01:17:37;;;;;;;0.80;0.80;;;;;;;15.44;69.05;100501.19;4386061;32;32705;-88
2022/10/31 01:20:06;;;;;;;2.60;1.10;;;;;;;15.46;69.01;100507.28;4388438;32;33805;-86
2022/10/31 01:22:34;;;;;;;2.17;2.00;;;;;;;15.34;69.07;100506.13;4380394;32;35179;-86
2022/10/31 01:25:04;;;;;;;3.03;2.50;;;;;;;15.20;69.53;100497.16;4386355;32;33679;-86
2022/10/31 01:27:32;;;;;;;1.50;1.45;;;;;;;15.33;68.91;100498.22;4387841;32;33455;-85
2022/10/31 01:30:00;;;;;;;4.20;2.03;;;;;;;15.34;68.88;100500.81;4393844;32;33216;-86
2022/10/31 01:32:31;;;;;;;4.15;3.72;;;;;;;15.26;68.91;100500.34;4393279;32;33162;-86
2022/10/31 01:34:59;;;;;;;1.90;1.75;;;;;;;15.26;69.11;100499.47;4392802;32;33869;-86
2022/10/31 01:37:27;;;;;;;2.80;2.53;;;;;;;15.24;69.06;100498.69;4378126;32;32873;-89
2022/10/31 01:39:55;;;;;;;4.57;3.67;;;;;;;15.27;69.12;100495.88;4373170;32;32180;-89
2022/10/31 01:42:24;;;;;;;4.80;3.22;;;;;;;15.28;69.10;100494.94;4386533;32;33981;-89
2022/10/31 01:44:58;;;;;;;1.70;1.60;;;;;;;15.29;69.04;100494.00;4391909;32;33749;-88
2022/10/31 01:47:53;;;;;;;7.87;3.08;;;;;;;15.31;68.96;100492.97;4380786;32;32147;-88
2022/10/31 01:50:36;;;;;;;3.35;3.00;;;;;;;15.40;68.79;100494.31;4385064;32;32775;-89
2022/10/31 01:53:05;;;;;;;6.07;3.20;;;;;;;15.45;68.73;100484.28;4386012;32;34596;-89
2022/10/31 01:55:36;;;;;;;1.75;1.65;;;;;;;15.47;68.71;100489.50;4377409;32;33499;-89
2022/10/31 01:58:11;;;;;;;2.30;2.12;;;;;;;15.34;68.81;100489.31;4391862;32;33256;-89
2022/10/31 02:00:40;;;;;;;2.05;1.70;;;;;;;15.45;68.66;100486.06;4381124;32;34413;-88
2022/10/31 02:03:10;;;;;;;3.15;2.87;;;;;;;15.29;68.81;100489.56;4384448;32;34221;-86
2022/10/31 02:05:37;;;;;;;2.40;2.20;;;;;;;14.76;70.81;100487.81;4393086;32;33805;-86
2022/10/31 02:08:12;;;;;;;3.67;3.42;;;;;;;14.97;70.15;100490.34;4368116;32;32338;-85
2022/10/31 02:10:40;;;;;;;2.42;2.10;;;;;;;15.14;69.32;100484.13;4384799;32;33690;-86
2022/10/31 02:13:08;;;;;;;2.10;1.95;;;;;;;14.94;70.21;100483.38;4378395;32;34387;-86
2022/10/31 02:15:37;;;;;;;3.03;2.17;;;;;;;15.07;69.64;100486.28;4366400;32;32906;-86
2022/10/31 02:18:06;;;;;;;3.60;3.30;;;;;;;15.09;69.74;100479.91;4375764;32;33596;-86
2022/10/31 02:20:55;;;;;;;3.70;2.33;;;;;;;15.20;69.24;100481.19;4387929;32;33503;-86
2022/10/31 02:23:47;;;;;;;4.10;3.15;;;;;;;15.25;69.00;100479.16;4383315;32;34985;-86
2022/10/31 02:26:45;;;;;;;2.08;1.98;;;;;;;15.10;69.34;100481.66;4398905;32;34401;-87
2022/10/31 02:29:37;;;;;;;2.05;1.58;;;;;;;15.14;69.01;100484.13;4391082;32;33108;-87
2022/10/31 02:32:25;;;;;;;2.25;2.05;;;;;;;15.03;69.51;100479.38;4382862;32;34067;-86
2022/10/31 02:35:30;;;;;;;1.67;1.58;;;;;;;14.67;70.48;100495.38;4379747;32;33890;-86
2022/10/31 02:38:20;;;;;;;2.50;1.70;;;;;;;14.82;69.91;100486.66;4385930;32;34301;-86
2022/10/31 02:41:15;;;;;;;9.60;2.00;;;;;;;14.82;69.61;100486.66;4387785;32;33567;-86
2022/10/31 02:44:13;;;;;;;2.35;1.85;;;;;;;14.79;69.92;100486.81;4386281;32;33906;-85
2022/10/31 02:46:59;;;;;;;0.85;0.82;;;;;;;14.73;70.16;100495.09;4399536;32;34132;-86
2022/10/31 02:49:35;;;;;;;0.95;0.85;;;;;;;14.79;69.97;100489.47;4378436;32;32965;-88
2022/10/31 02:52:17;;;;;;;4.72;1.55;;;;;;;14.86;69.69;100485.56;4387188;32;33740;-88
2022/10/31 02:54:46;;;;;;;1.25;1.23;;;;;;;14.99;69.39;100494.63;4378180;32;32814;-88
2022/10/31 02:57:19;;;;;;;1.45;1.35;;;;;;;15.08;69.04;100493.31;4375346;32;35309;-88
2022/10/31 02:59:49;;;;;;;1.92;1.62;;;;;;;15.02;69.14;100499.81;4378983;32;33537;-88
2022/10/31 03:02:31;;;;;;;2.05;1.87;;;;;;;15.05;68.95;100499.66;4378532;32;33635;-86
2022/10/31 03:05:07;;;;;;;0.62;0.62;;;;;;;15.06;69.22;100496.06;4378351;32;34217;-85
2022/10/31 03:08:01;;;;;;;0.77;0.77;;;;;;;15.01;69.22;100498.09;4397312;32;34650;-85
2022/10/31 03:11:02;;;;;;;3.08;2.58;;;;;;;15.01;69.37;100491.91;4377226;32;33783;-85
2022/10/31 03:13:38;;;;;;;2.23;2.03;;;;;;;15.01;69.38;100491.91;4385851;32;32910;-85
2022/10/31 03:16:27;;;;;;;1.02;1.02;;;;;;;15.18;68.64;100488.37;4392101;32;32766;-85
2022/10/31 03:19:02;;;;;;;1.55;1.45;;;;;;;15.34;67.75;100491.97;4397191;32;34395;-86
2022/10/31 03:21:47;;;;;;;0.88;0.85;;;;;;;15.12;68.36;100497.53;4374180;32;33285;-86
2022/10/31 03:24:16;;;;;;;0.68;0.68;;;;;;;14.97;69.11;100501.84;4384518;32;33809;-85
2022/10/31 03:26:49;;;;;;;1.25;1.17;;;;;;;14.75;69.72;100510.03;4379029;32;35079;-84
2022/10/31 03:29:20;;;;;;;2.10;1.23;;;;;;;14.88;69.50;100507.63;4376272;32;33174;-85
2022/10/31 03:32:00;;;;;;;1.55;1.42;;;;;;;14.89;69.45;100509.34;4398988;32;34060;-85
2022/10/31 03:34:30;;;;;;;1.65;1.55;;;;;;;14.95;69.10;100506.34;4394682;32;34005;-84
2022/10/31 03:37:02;;;;;;;1.05;0.85;;;;;;;14.98;68.92;100503.56;4374171;32;33470;-85
2022/10/31 03:39:30;;;;;;;2.45;1.52;;;;;;;15.02;68.58;100510.44;4373681;32;34047;-88
2022/10/31 03:42:05;;;;;;;2.15;1.70;;;;;;;15.26;67.61;100504.81;4373605;32;33438;-87
2022/10/31 03:44:35;;;;;;;0.68;0.65;;;;;;;15.04;68.47;100511.22;4373140;32;32167;-86
2022/10/31 03:47:04;;;;;;;3.50;2.03;;;;;;;14.93;69.06;100510.03;4376778;32;34109;-86
2022/10/31 03:49:33;;;;;;;1.85;1.23;;;;;;;14.95;69.11;100503.69;4375562;32;34769;-86
2022/10/31 03:52:17;;;;;;;0.93;0.90;;;;;;;15.07;68.56;100508.41;4373302;32;33681;-86
2022/10/31 03:54:47;;;;;;;1.87;1.77;;;;;;;14.87;69.47;100511.22;4364080;32;33691;-86
2022/10/31 03:57:29;;;;;;;1.58;1.35;;;;;;;14.70;69.72;100514.69;4373926;32;33203;-87
2022/10/31 04:00:14;;;;;;;0.45;0.45;;;;;;;14.74;69.68;100515.41;4394987;32;33829;-87
2022/10/31 04:02:54;;;;;;;1.40;1.30;;;;;;;14.91;68.90;100514.56;4394023;32;34023;-88
2022/10/31 04:05:22;;;;;;;1.37;1.27;;;;;;;14.96;68.64;100518.75;4399984;32;33138;-87
2022/10/31 04:07:53;;;;;;;3.35;1.55;;;;;;;14.92;68.79;100513.66;4379710;32;33708;-86
2022/10/31 04:10:22;;;;;;;2.45;1.77;;;;;;;14.89;68.73;100514.66;4412563;32;33325;-86
2022/10/31 04:12:59;;;;;;;2.00;1.02;;;;;;;14.78;68.93;100527.63;4389659;32;33003;-86
2022/10/31 04:15:31;;;;;;;1.52;1.42;;;;;;;14.90;68.65;100524.34;4387227;32;34525;-86
2022/10/31 04:17:59;;;;;;;0.55;0.55;;;;;;;14.83;68.92;100522.94;4400767;32;32747;-86
2022/10/31 04:20:36;;;;;;;1.67;1.55;;;;;;;14.89;68.76;100524.44;4411345;32;34017;-86
2022/10/31 04:23:05;;;;;;;0.75;0.75;;;;;;;14.85;68.88;100518.41;4387712;32;33309;-86
2022/10/31 04:25:39;;;;;;;0.52;0.52;;;;;;;14.85;68.92;100532.53;4381715;32;32386;-86
2022/10/31 04:28:07;;;;;;;4.05;1.12;;;;;;;14.93;68.73;100529.53;4393734;32;34480;-86
2022/10/31 04:30:36;;;;;;;1.30;1.20;;;;;;;15.06;68.03;100517.34;4402130;32;33378;-84
2022/10/31 04:33:04;;;;;;;1.98;1.85;;;;;;;14.97;68.45;100528.44;4403362;32;33960;-84
2022/10/31 04:35:32;;;;;;;1.40;1.17;;;;;;;14.94;68.47;100536.56;4381306;32;32558;-85
2022/10/31 04:38:00;;;;;;;1.40;1.40;;;;;;;15.02;68.28;100539.69;4411450;32;34534;-84
2022/10/31 04:40:29;;;;;;;2.90;0.95;;;;;;;14.90;68.76;100542.94;4381631;32;33350;-86
2022/10/31 04:42:58;;;;;;;1.37;1.27;;;;;;;14.97;68.57;100540.88;4411554;32;33822;-86
2022/10/31 04:45:28;;;;;;;1.65;1.48;;;;;;;14.97;68.70;100544.38;4400555;32;33233;-86
2022/10/31 04:47:57;;;;;;;1.25;1.15;;;;;;;15.35;66.98;100542.44;4397735;32;32705;-86
2022/10/31 04:50:30;;;;;;;0.90;0.90;;;;;;;15.05;67.96;100539.56;4393798;32;34292;-85
2022/10/31 04:53:00;;;;;;;1.10;1.10;;;;;;;14.99;68.37;100538.97;4398401;32;34135;-86
2022/10/31 04:55:30;;;;;;;1.95;1.85;;;;;;;14.99;68.58;100531.00;4399906;32;33155;-86
2022/10/31 04:57:59;;;;;;;3.25;2.95;;;;;;;15.04;68.42;100534.28;4371961;32;35096;-87
2022/10/31 05:00:28;;;;;;;1.95;1.85;;;;;;;14.96;68.72;100542.66;4398050;32;34476;-87
2022/10/31 05:02:58;;;;;;;2.03;1.92;;;;;;;15.26;67.60;100544.72;4390290;32;34247;-87
2022/10/31 05:05:29;;;;;;;1.70;1.60;;;;;;;15.39;66.56;100543.16;4375074;32;33101;-87
2022/10/31 05:07:58;;;;;;;0.60;0.60;;;;;;;15.39;66.70;100539.63;4389559;32;33943;-87
2022/10/31 05:10:30;;;;;;;2.03;1.58;;;;;;;15.24;66.78;100546.56;4377682;32;33024;-88
2022/10/31 05:13:01;;;;;;;;;;;;;;;15.08;67.60;100552.69;4392828;32;33538;-88
2022/10/31 05:15:33;;;;;;;1.45;1.35;;;;;;;15.03;68.13;100556.50;4388273;32;33239;-87
2022/10/31 05:18:05;;;;;;;1.67;0.82;;;;;;;14.93;68.58;100548.13;4386737;32;33046;-86
2022/10/31 05:20:35;;;;;;;2.83;2.58;;;;;;;14.98;68.48;100545.25;4391459;32;34076;-86
2022/10/31 05:23:04;;;;;;;5.25;3.70;;;;;;;15.00;68.52;100549.56;4387670;32;33123;-85
2022/10/31 05:25:34;;;;;;;1.83;1.73;;;;;;;15.00;68.60;100535.37;4398184;32;33227;-86
2022/10/31 05:28:05;;;;;;;1.98;1.87;;;;;;;14.96;68.77;100541.81;4379548;32;32819;-86
2022/10/31 05:30:43;;;;;;;1.83;1.73;;;;;;;15.33;67.42;100546.09;4384233;32;34201;-86
2022/10/31 05:33:17;;;;;;;1.58;1.45;;;;;;;15.41;66.98;100543.06;4371378;32;33131;-85
2022/10/31 05:35:47;;;;;;;3.42;1.92;;;;;;;15.18;67.51;100547.75;4371292;32;31709;-86
2022/10/31 05:38:17;;;;;;;1.33;1.23;;;;;;;14.92;68.71;100545.56;4395217;32;35295;-85
2022/10/31 05:40:48;;;;;;;2.03;1.92;;;;;;;14.92;68.96;100541.09;4381520;32;34651;-85
2022/10/31 05:43:16;;;;;;;1.90;1.77;;;;;;;14.85;69.25;100535.19;4370088;32;34218;-87
2022/10/31 05:45:46;;;;;;;2.03;1.60;;;;;;;14.79;69.75;100547.94;4378816;32;31295;-87
2022/10/31 05:48:16;;;;;;;1.33;1.33;;;;;;;15.31;67.58;100548.00;4381826;32;32732;-85
2022/10/31 05:50:48;;;;;;;4.05;2.75;;;;;;;14.89;68.94;100549.22;4383083;32;33801;-86
2022/10/31 05:53:17;;;;;;;1.80;1.42;;;;;;;14.71;70.02;100552.78;4376570;32;33471;-85
2022/10/31 05:55:47;;;;;;;2.90;2.00;;;;;;;14.78;69.82;100564.84;4370530;32;32469;-84
2022/10/31 05:58:19;;;;;;;1.30;1.17;;;;;;;14.75;69.98;100559.66;4378372;32;33152;-84
2022/10/31 06:00:51;;;;;;;2.53;1.62;;;;;;;14.67;70.06;100567.16;4379279;32;33106;-84
2022/10/31 06:03:22;;;;;;;2.10;1.90;;;;;;;14.66;70.54;100557.47;4389564;32;33491;-84
2022/10/31 06:05:52;;;;;;;3.78;3.47;;;;;;;14.65;70.80;100563.72;4380056;32;32267;-86
2022/10/31 06:09:02;;;;;;;5.37;2.28;;;;;;;14.88;69.92;100560.78;4378886;32;32889;-85
2022/10/31 06:11:37;;;;;;;3.22;2.95;;;;;;;14.70;70.49;100561.69;4378922;32;32740;-85
2022/10/31 06:14:11;;;;;;;2.00;1.83;;;;;;;14.94;69.74;100560.47;4356049;32;717038;-85
2022/10/31 06:16:40;;;;;;;1.15;1.12;;;;;;;14.73;70.64;100561.56;4387875;32;33872;-86
2022/10/31 06:19:12;;;;;;;0.35;0.35;;;;;;;14.36;71.93;100568.59;4374702;32;33156;-86
2022/10/31 06:21:49;;;;;;;2.22;2.08;;;;;;;14.67;70.88;100578.66;4378828;32;32966;-85
2022/10/31 06:24:23;;;;;;;2.67;1.62;;;;;;;14.85;70.26;100566.25;4373097;32;32622;-85
2022/10/31 06:26:58;;;;;;;3.33;3.10;;;;;;;14.89;69.88;100566.97;4384719;32;33210;-85
2022/10/31 06:29:27;;;;;;;1.00;1.00;;;;;;;15.10;69.01;100566.78;4372768;32;32998;-85
2022/10/31 06:31:55;;;;;;;6.32;2.75;;;;;;;14.39;71.52;100556.97;4407058;32;34636;-84
2022/10/31 06:34:29;;;;;;;2.65;2.47;;;;;;;14.41;71.68;100557.75;4393645;32;33256;-85
2022/10/31 06:37:01;;;;;;;3.85;2.90;;;;;;;14.52;71.40;100572.25;4379215;32;32864;-84
2022/10/31 06:42:11;;;;;;;1.20;1.20;;;;;;;14.77;70.72;100563.13;4389955;32;34079;-85
2022/10/31 06:44:40;;;;;;;3.20;3.00;;;;;;;14.73;70.80;100567.72;4381346;32;35152;-85
2022/10/31 06:47:15;;;;;;;1.87;1.75;;;;;;;14.93;70.17;100569.41;4388799;32;34130;-85
2022/10/31 06:49:44;;;;;;;1.67;0.73;;;;;;;14.90;70.23;100571.34;4379466;32;33556;-86
2022/10/31 06:52:23;;;;;;;3.58;2.53;;;;;;;14.98;69.67;100575.34;4392400;32;34817;-87
2022/10/31 06:54:51;;;;;;;1.40;1.33;;;;;;;14.96;69.77;100590.53;4389069;32;33478;-88
2022/10/31 06:57:23;;;;;;;2.42;2.10;;;;;;;14.73;70.62;100588.12;4388464;32;31712;-88
2022/10/31 06:59:53;;;;;;;;;;;;;;;14.85;69.99;100592.84;4396165;32;33225;-88
2022/10/31 07:02:26;;;;;;;2.05;1.83;;;;;;;14.94;69.64;100594.19;4394325;32;33705;-88
2022/10/31 07:04:59;;;;;;;3.00;2.80;;;;;;;15.04;69.39;100588.34;4390994;32;33117;-88
2022/10/31 07:10:16;;;;;;;1.55;1.45;;;;;;;14.92;69.93;100599.59;4401425;32;32783;-86
2022/10/31 07:12:45;;;;;;;;;;;;;;;15.01;69.52;100596.50;4390184;32;33668;-90
2022/10/31 07:15:29;;;;;;;0.85;0.85;;;;;;;15.13;69.07;100602.13;4397634;32;34673;-88
2022/10/31 07:18:07;;;;;;;3.40;3.07;;;;;;;15.30;68.01;100599.50;4399133;32;33172;-89
2022/10/31 07:20:43;;;;;;;4.82;2.40;;;;;;;15.18;68.44;100600.94;4395427;32;32722;-89
2022/10/31 07:23:13;;;;;;;7.57;4.82;;;;;;;15.01;69.36;100604.47;4395599;32;33396;-88
2022/10/31 07:25:45;;;;;;;3.65;1.75;;;;;;;14.85;69.97;100611.44;4395669;32;32942;-88
2022/10/31 07:28:17;;;;;;;3.15;2.03;;;;;;;15.12;69.28;100617.22;4392081;32;32552;-88
2022/10/31 07:30:55;;;;;;;5.57;3.25;;;;;;;15.05;69.47;100618.50;4395336;32;34013;-89
2022/10/31 07:33:26;;;;;;;2.75;2.55;;;;;;;15.20;69.16;100609.75;4395247;32;33171;-88
2022/10/31 07:35:57;;;;;;;2.60;2.17;;;;;;;14.98;69.78;100611.72;4396510;32;33069;-88
2022/10/31 07:38:33;;;;;;;3.70;3.42;;;;;;;15.03;69.92;100623.84;4411142;32;32307;-88
2022/10/31 07:46:44;;;;;;;0.93;0.93;;;;;;;15.32;68.18;100621.56;4396690;32;32753;-89
2022/10/31 07:51:59;;;;;;;2.83;2.58;;;;;;;15.28;68.16;100607.53;4404540;32;34196;-88
2022/10/31 07:54:36;;;;;;;7.37;5.70;;;;;;;15.06;68.69;100602.44;4399332;32;33521;-89
2022/10/31 07:57:16;;;;;;;2.78;2.47;;;;;;;14.66;71.12;100594.66;4385003;32;33174;-88
2022/10/31 07:59:55;;;;;;;2.12;1.80;;;;;;;15.22;69.21;100605.19;4369463;32;33062;-88
2022/10/31 08:02:47;;;;;;;4.03;3.67;;;;;;;15.09;69.71;100601.41;4391934;32;34758;-88
2022/10/31 08:05:31;;;;;;;2.15;2.05;;;;;;;14.69;71.50;100607.81;4379897;32;32852;-88
2022/10/31 08:08:05;;;;;;;2.70;2.50;;;;;;;14.91;70.92;100618.25;4392814;32;33402;-88
2022/10/31 08:10:40;;;;;;;1.75;1.65;;;;;;;15.04;70.50;100612.28;4363027;32;32175;-88
2022/10/31 08:13:16;;;;;;;4.18;3.65;;;;;;;15.08;70.03;100611.19;4368706;32;32773;-88
2022/10/31 08:15:50;;;;;;;2.22;2.03;;;;;;;15.18;70.00;100616.91;4368480;32;34349;-89
2022/10/31 08:18:25;;;;;;;2.22;2.08;;;;;;;15.00;70.08;100608.06;4369845;32;33287;-88
2022/10/31 08:20:58;;;;;;;3.08;2.80;;;;;;;14.97;70.50;100618.84;4368163;32;32971;-88
2022/10/31 08:23:29;;;;;;;3.37;2.05;;;;;;;15.17;70.05;100614.34;4374134;32;33199;-88
2022/10/31 08:26:06;;;;;;;3.03;2.40;;;;;;;15.18;70.01;100618.72;4384982;32;33906;-88
2022/10/31 08:31:22;;;;;;;5.93;2.78;;;;;;;15.06;70.30;100621.06;4369719;32;32174;-89
2022/10/31 08:33:57;;;;;;;2.17;2.03;;;;;;;15.40;69.11;100623.84;4356616;32;32704;-88
2022/10/31 08:36:36;;;;;;;2.78;2.58;;;;;;;15.46;69.01;100619.06;4369012;32;34531;-89
2022/10/31 08:39:27;;;;;;;3.42;3.12;;;;;;;15.55;68.55;100610.59;4380123;32;32839;-92
2022/10/31 08:42:17;;;;;;;1.87;1.10;;;;;;;15.44;69.19;100614.75;4414426;32;32190;-92
2022/10/31 08:45:13;;;;;;;2.00;1.90;;;;;;;15.20;70.09;100614.19;4360071;32;35292;-91
2022/10/31 08:48:06;;;;;;;3.80;2.12;;;;;;;15.35;69.41;100613.44;4378109;32;33873;-92
2022/10/31 08:51:01;;;;;;;2.00;1.17;;;;;;;15.52;68.87;100613.41;4353124;32;32760;-91
2022/10/31 08:56:55;;;;;;;5.43;3.10;;;;;;;15.76;67.21;100613.13;4383120;32;35053;-92
2022/10/31 08:59:53;;;;;;;3.97;3.12;;;;;;;15.73;67.78;100614.16;4376494;32;33015;-91
2022/10/31 09:02:36;;;;;;;3.87;3.50;;;;;;;15.47;68.67;100618.09;4421876;32;33391;-91
2022/10/31 09:05:22;;;;;;;4.40;2.78;;;;;;;15.80;67.77;100620.00;4375973;32;32314;-91
2022/10/31 09:08:08;;;;;;;1.85;1.75;;;;;;;15.31;68.89;100617.19;4382380;32;32866;-90
2022/10/31 09:10:51;;;;;;;4.10;3.50;;;;;;;15.30;69.34;100626.09;4381584;32;32776;-90
2022/10/31 09:13:36;;;;;;;2.53;2.33;;;;;;;15.42;69.22;100625.47;4378999;32;33570;-91
2022/10/31 09:16:33;;;;;;;14.55;1.67;;;;;;;15.51;69.02;100634.78;4334553;32;32009;-91
2022/10/31 09:19:18;;;;;;;3.47;3.15;;;;;;;15.32;69.65;100627.72;4362471;32;33645;-91
2022/10/31 09:22:16;;;;;;;2.20;2.08;;;;;;;15.35;69.70;100632.91;4380821;32;33239;-91
2022/10/31 09:25:01;;;;;;;6.68;3.53;;;;;;;15.48;69.20;100633.16;4421025;32;33264;-91
2022/10/31 09:27:46;;;;;;;2.37;2.22;;;;;;;15.66;68.35;100623.37;4394298;32;32408;-92
2022/10/31 09:30:39;;;;;;;2.70;1.87;;;;;;;15.50;68.28;100633.94;4340448;32;32751;-92
2022/10/31 09:33:31;;;;;;;;;;;;;;;15.33;69.49;100629.47;4364267;32;34475;-92
2022/10/31 09:36:18;;;;;;;12.77;3.25;;;;;;;15.26;69.66;100636.03;4384558;32;33749;-91
2022/10/31 09:39:02;;;;;;;6.93;2.17;;;;;;;15.80;67.80;100638.66;4369069;32;32594;-91
2022/10/31 09:41:51;;;;;;;4.15;2.58;;;;;;;15.54;68.17;100624.84;4349085;32;34116;-90
2022/10/31 09:48:21;;;;;;;1.75;1.48;;;;;;;15.65;67.95;100631.47;4418522;32;33005;-91
2022/10/31 09:51:56;;;;;;;1.25;1.25;;;;;;;15.55;68.07;100637.22;4372385;32;32963;-94
2022/10/31 09:54:59;;;;;;;0.77;0.77;;;;;;;15.27;69.56;100635.09;4384481;32;35293;-91
2022/10/31 09:57:44;;;;;;;3.42;3.12;;;;;;;15.46;68.91;100636.81;4407556;32;33149;-91
2022/10/31 10:00:27;;;;;;;2.33;2.05;;;;;;;15.35;69.39;100640.03;4360652;32;33705;-91
2022/10/31 10:03:11;;;;;;;2.55;2.33;;;;;;;15.16;70.08;100625.94;4370515;32;32368;-93
2022/10/31 10:09:03;;;;;;;1.58;1.48;;;;;;;15.18;70.48;100624.03;4421534;32;33021;-93
2022/10/31 10:12:24;;;;;;;7.18;2.85;;;;;;;15.01;71.31;100628.41;4379453;32;33704;-93
2022/10/31 10:15:29;;;;;;;2.97;1.77;;;;;;;15.08;71.07;100623.63;4391536;32;35096;-92
2022/10/31 10:18:26;;;;;;;2.25;1.55;;;;;;;15.46;68.93;100626.19;4361590;32;32757;-92
2022/10/31 10:21:46;;;;;;;2.95;1.95;;;;;;;15.20;69.40;100630.16;4398177;32;35137;-91
2022/10/31 10:24:54;;;;;;;2.85;2.40;;;;;;;14.98;70.74;100620.56;4421144;32;32933;-95
2022/10/31 10:27:56;;;;;;;2.58;2.37;;;;;;;15.19;70.33;100623.09;4375588;32;31875;-86
2022/10/31 10:30:44;;;;;;;1.25;1.15;;;;;;;15.25;70.33;100612.16;4388580;32;33922;-86
2022/10/31 10:33:41;;;;;;;5.53;2.33;;;;;;;15.13;70.51;100616.28;4361281;32;32491;-86
2022/10/31 10:39:41;;;;;;;2.95;2.75;;;;;;;15.04;70.80;100616.75;4373918;32;32786;-86
2022/10/31 10:47:58;;;;;;;15.38;1.95;;;;;;;15.37;70.08;100615.06;4366468;32;33574;-86
2022/10/31 10:53:31;;;;;;;3.62;2.00;;;;;;;15.35;69.94;100606.31;4368447;32;33331;-86
2022/10/31 10:56:17;;;;;;;3.00;2.75;;;;;;;15.42;70.00;100604.19;4376889;32;34210;-86
2022/10/31 10:59:01;;;;;;;2.60;2.50;;;;;;;15.43;69.53;100613.91;4390330;32;33853;-86
2022/10/31 11:01:45;;;;;;;4.28;3.65;;;;;;;15.28;70.28;100612.00;4377095;32;32826;-86
2022/10/31 11:04:34;;;;;;;4.30;3.25;;;;;;;15.32;70.06;100610.91;4378158;32;34055;-86
2022/10/31 11:07:07;;;;;;;1.75;1.70;;;;;;;15.12;70.70;100611.91;4365509;32;34371;-86
2022/10/31 11:09:39;;;;;;;1.62;1.50;;;;;;;15.11;70.27;100605.72;4364924;32;34084;-86
2022/10/31 11:12:17;;;;;;;2.53;2.33;;;;;;;15.34;69.55;100617.03;4365390;32;32805;-86
2022/10/31 11:15:19;;;;;;;3.17;2.85;;;;;;;15.14;70.31;100604.69;4376243;32;33263;-86
2022/10/31 11:17:52;;;;;;;4.78;1.83;;;;;;;14.99;70.73;100602.81;4363297;32;33565;-86
2022/10/31 11:20:31;;;;;;;7.25;2.37;;;;;;;15.09;70.46;100602.28;4363615;32;32656;-86
2022/10/31 11:23:17;;;;;;;4.57;3.30;;;;;;;15.41;69.27;100594.47;4377636;32;33694;-86
2022/10/31 11:26:00;;;;;;;1.67;1.60;;;;;;;15.33;69.75;100599.31;4370592;32;33429;-86
2022/10/31 11:28:35;;;;;;;2.92;2.25;;;;;;;15.14;70.17;100601.19;4377534;32;33922;-86
2022/10/31 11:31:13;;;;;;;3.10;1.90;;;;;;;15.40;68.84;100584.78;4366352;32;33941;-87
2022/10/31 11:33:58;;;;;;;2.62;1.12;;;;;;;15.47;68.69;100585.31;4344288;32;31616;-91
2022/10/31 11:36:43;;;;;;;2.42;2.25;;;;;;;15.21;69.75;100599.94;4385292;32;32919;-92
2022/10/31 11:39:25;;;;;;;1.00;0.98;;;;;;;15.41;69.25;100586.50;4384607;32;32167;-94
2022/10/31 11:45:00;;;;;;;2.40;2.22;;;;;;;15.43;68.77;100584.62;4348301;33;33513;-89
2022/10/31 11:48:01;;;;;;;1.12;1.12;;;;;;;14.97;70.54;100592.25;4349429;33;32576;-89
2022/10/31 11:50:58;;;;;;;5.28;1.20;;;;;;;15.24;69.78;100587.38;4354082;32;32891;-90
2022/10/31 11:56:54;;;;;;;6.47;2.75;;;;;;;15.55;68.22;100586.66;4379311;32;31502;-89
2022/10/31 11:59:38;;;;;;;2.72;2.28;;;;;;;15.34;69.09;100587.75;4393550;32;32804;-92
2022/10/31 12:02:26;;;;;;;0.85;0.77;;;;;;;15.13;69.73;100594.16;4396226;32;33057;-92
2022/10/31 12:05:27;;;;;;;1.70;1.27;;;;;;;15.30;69.04;100583.53;4408487;32;34692;-90
2022/10/31 12:08:13;;;;;;;1.70;1.60;;;;;;;15.02;70.08;100578.72;4407882;32;32042;-91
2022/10/31 12:11:14;;;;;;;1.83;1.60;;;;;;;15.21;69.68;100589.31;4351981;32;33073;-91
2022/10/31 12:14:19;;;;;;;1.15;1.05;;;;;;;15.35;68.95;100586.81;4339991;33;32867;-91
2022/10/31 12:17:14;;;;;;;5.20;2.33;;;;;;;15.43;68.69;100581.97;4358829;32;34065;-90
2022/10/31 12:23:14;;;;;;;2.50;2.30;;;;;;;15.62;68.04;100588.06;4377443;32;20161;-90
2022/10/31 12:26:11;;;;;;;2.53;1.83;;;;;;;15.62;67.65;100585.41;4373295;32;34516;-89
2022/10/31 12:29:16;;;;;;;1.73;1.35;;;;;;;15.38;68.22;100586.63;4381561;32;34355;-90
2022/10/31 12:32:16;;;;;;;0.65;0.55;;;;;;;15.60;67.70;100581.94;4359719;32;32654;-90
2022/10/31 12:35:09;;;;;;;0.90;0.75;;;;;;;15.69;67.20;100572.66;4373144;32;34523;-90
2022/10/31 12:41:39;;;;;;;1.75;1.65;;;;;;;15.20;68.88;100579.63;4423853;32;33548;-92
2022/10/31 12:44:48;;;;;;;2.83;1.52;;;;;;;15.47;68.12;100575.53;4384025;32;32103;-90
2022/10/31 12:47:57;;;;;;;4.05;1.40;;;;;;;15.55;67.47;100578.66;4377458;32;33814;-91
2022/10/31 12:54:19;;;;;;;0.82;0.73;;;;;;;15.57;67.31;100576.78;4404411;32;32839;-91
2022/10/31 12:57:32;;;;;;;0.55;0.55;;;;;;;15.42;67.81;100568.72;4374178;32;32542;-92
2022/10/31 13:00:19;;;;;;;3.03;2.03;;;;;;;15.10;69.07;100579.22;4354205;32;32991;-90
2022/10/31 13:06:28;;;;;;;3.58;1.20;;;;;;;15.03;69.54;100577.78;4377579;32;34484;-91
2022/10/31 13:09:29;;;;;;;3.08;2.05;;;;;;;15.28;68.76;100574.75;4392491;32;33456;-90
2022/10/31 13:15:24;;;;;;;2.75;2.55;;;;;;;15.13;69.36;100564.88;4368981;32;34595;-90
2022/10/31 13:18:13;;;;;;;1.42;1.33;;;;;;;14.73;70.72;100566.88;4383556;32;33122;-90
2022/10/31 13:20:58;;;;;;;2.33;1.92;;;;;;;15.28;68.93;100561.44;4406252;32;34142;-83
2022/10/31 13:23:29;;;;;;;1.87;1.77;;;;;;;14.98;70.24;100566.53;4384488;32;32884;-83